Time;durP1;ratioP1;P1;durP2;ratioP2;P2;SDS_P1;SDS_P2;PMS_P1;PMS_P2;Temp;Humidity;BMP_temperature;BMP_pressure;BME280_temperature;BME280_humidity;BME280_pressure;Samples;Min_cycle;Max_cycle;Signal;HPM_P1;HPM_P2
2023/10/31 00:02:03;;;;;;;0.35;0.00;;;;;;;;;;5041740;28;20745;-65
2023/10/31 00:04:29;;;;;;;0.45;0.00;;;;;;;;;;5044215;28;20037;-65
2023/10/31 00:06:55;;;;;;;0.60;0.30;;;;;;;;;;5044218;28;20224;-65
2023/10/31 00:09:21;;;;;;;0.00;0.00;;;;;;;;;;5043326;28;20079;-65
2023/10/31 00:11:47;;;;;;;0.13;0.10;;;;;;;;;;5044044;28;20045;-65
2023/10/31 00:14:13;;;;;;;0.08;0.00;;;;;;;;;;5045393;28;20048;-65
2023/10/31 00:16:39;;;;;;;0.22;0.20;;;;;;;;;;5042624;28;20100;-65
2023/10/31 00:19:05;;;;;;;0.10;0.10;;;;;;;;;;5044797;28;20044;-65
2023/10/31 00:21:31;;;;;;;0.50;0.13;;;;;;;;;;5045123;28;20033;-65
2023/10/31 00:23:57;;;;;;;0.10;0.00;;;;;;;;;;5043830;28;20080;-65
2023/10/31 00:26:23;;;;;;;0.00;0.00;;;;;;;;;;5042897;28;20398;-65
2023/10/31 00:28:49;;;;;;;0.30;0.10;;;;;;;;;;5044807;28;20056;-65
2023/10/31 00:31:15;;;;;;;0.65;0.20;;;;;;;;;;5044168;28;20504;-65
2023/10/31 00:33:41;;;;;;;0.10;0.10;;;;;;;;;;5043654;28;20078;-65
2023/10/31 00:36:07;;;;;;;0.55;0.20;;;;;;;;;;5042385;28;20045;-65
2023/10/31 00:38:33;;;;;;;0.20;0.20;;;;;;;;;;5042256;28;20049;-65
2023/10/31 00:40:59;;;;;;;0.88;0.25;;;;;;;;;;5044547;28;20068;-65
2023/10/31 00:43:25;;;;;;;1.08;0.43;;;;;;;;;;5045306;28;20495;-65
2023/10/31 00:45:51;;;;;;;0.70;0.40;;;;;;;;;;5044032;28;20045;-65
2023/10/31 00:48:17;;;;;;;0.77;0.35;;;;;;;;;;5042673;28;20045;-65
2023/10/31 00:50:44;;;;;;;0.40;0.25;;;;;;;;;;5042827;28;20045;-65
2023/10/31 00:53:10;;;;;;;0.20;0.20;;;;;;;;;;5043417;28;20080;-65
2023/10/31 00:55:36;;;;;;;0.10;0.10;;;;;;;;;;5043852;28;20494;-64
2023/10/31 00:58:02;;;;;;;0.93;0.10;;;;;;;;;;5041100;28;20479;-65
2023/10/31 01:00:28;;;;;;;0.20;0.20;;;;;;;;;;5043749;28;20051;-65
2023/10/31 01:02:54;;;;;;;0.10;0.10;;;;;;;;;;5044781;28;20041;-64
2023/10/31 01:05:20;;;;;;;0.15;0.15;;;;;;;;;;5044297;28;20280;-65
2023/10/31 01:07:46;;;;;;;0.38;0.20;;;;;;;;;;5042737;28;20060;-65
2023/10/31 01:10:12;;;;;;;0.20;0.20;;;;;;;;;;5043051;28;20059;-65
2023/10/31 01:12:38;;;;;;;0.10;0.10;;;;;;;;;;5042035;28;20139;-65
2023/10/31 01:15:04;;;;;;;0.35;0.20;;;;;;;;;;5042517;28;20044;-65
2023/10/31 01:17:30;;;;;;;1.85;0.20;;;;;;;;;;5042762;28;20335;-65
2023/10/31 01:19:56;;;;;;;0.85;0.10;;;;;;;;;;5040536;28;20509;-65
2023/10/31 01:22:22;;;;;;;0.05;0.05;;;;;;;;;;5044082;28;20071;-65
2023/10/31 01:24:48;;;;;;;0.20;0.10;;;;;;;;;;5043791;28;20076;-65
2023/10/31 01:27:14;;;;;;;0.08;0.05;;;;;;;;;;5043081;28;20056;-65
2023/10/31 01:29:40;;;;;;;0.20;0.13;;;;;;;;;;5043605;28;20419;-65
2023/10/31 01:32:06;;;;;;;0.60;0.30;;;;;;;;;;5043892;28;20345;-65
2023/10/31 01:34:32;;;;;;;0.17;0.10;;;;;;;;;;5041741;28;20059;-65
2023/10/31 01:36:58;;;;;;;0.38;0.20;;;;;;;;;;5043758;28;20512;-65
2023/10/31 01:39:24;;;;;;;0.25;0.08;;;;;;;;;;5042010;28;20082;-65
2023/10/31 01:41:50;;;;;;;0.20;0.20;;;;;;;;;;5042545;28;20426;-65
2023/10/31 01:44:16;;;;;;;0.80;0.38;;;;;;;;;;5043346;28;20056;-65
2023/10/31 01:46:42;;;;;;;0.50;0.20;;;;;;;;;;5041962;28;20045;-65
2023/10/31 01:49:08;;;;;;;0.22;0.10;;;;;;;;;;5042827;28;20600;-65
2023/10/31 01:51:34;;;;;;;0.22;0.20;;;;;;;;;;5041531;28;20041;-65
2023/10/31 01:54:01;;;;;;;0.20;0.10;;;;;;;;;;5041432;28;20072;-65
2023/10/31 01:56:27;;;;;;;0.10;0.10;;;;;;;;;;5041590;28;20060;-65
2023/10/31 01:58:53;;;;;;;0.00;0.00;;;;;;;;;;5043861;28;20049;-65
2023/10/31 02:01:19;;;;;;;0.00;0.00;;;;;;;;;;5043879;28;20049;-65
2023/10/31 02:03:45;;;;;;;0.00;0.00;;;;;;;;;;5041194;28;20293;-65
2023/10/31 02:06:11;;;;;;;0.08;0.08;;;;;;;;;;5042345;28;20218;-65
2023/10/31 02:08:37;;;;;;;0.10;0.00;;;;;;;;;;5042005;28;20481;-65
2023/10/31 02:11:05;;;;;;;0.00;0.00;;;;;;;;;;5042518;28;20040;-65
2023/10/31 02:13:31;;;;;;;0.10;0.00;;;;;;;;;;5039083;28;20049;-65
2023/10/31 02:15:57;;;;;;;0.00;0.00;;;;;;;;;;5042218;28;20053;-65
2023/10/31 02:18:23;;;;;;;0.65;0.10;;;;;;;;;;5042207;28;20422;-65
2023/10/31 02:20:49;;;;;;;0.32;0.00;;;;;;;;;;5042860;28;20450;-65
2023/10/31 02:23:18;;;;;;;0.30;0.00;;;;;;;;;;5042614;28;20103;-65
2023/10/31 02:25:44;;;;;;;0.10;0.10;;;;;;;;;;5041889;28;20045;-65
2023/10/31 02:28:10;;;;;;;0.10;0.10;;;;;;;;;;5042670;28;20048;-65
2023/10/31 02:30:36;;;;;;;0.50;0.22;;;;;;;;;;5040834;28;20076;-65
2023/10/31 02:33:03;;;;;;;0.20;0.20;;;;;;;;;;5041374;28;20048;-65
2023/10/31 02:35:29;;;;;;;0.52;0.10;;;;;;;;;;5041676;28;20033;-65
2023/10/31 02:37:56;;;;;;;0.52;0.20;;;;;;;;;;5039604;28;20106;-65
2023/10/31 02:40:22;;;;;;;0.40;0.22;;;;;;;;;;5041921;28;20045;-65
2023/10/31 02:42:48;;;;;;;0.47;0.10;;;;;;;;;;5042312;28;20359;-65
2023/10/31 02:45:14;;;;;;;0.10;0.10;;;;;;;;;;5040212;28;20530;-65
2023/10/31 02:47:40;;;;;;;0.15;0.15;;;;;;;;;;5041484;28;20056;-65
2023/10/31 02:50:06;;;;;;;0.65;0.20;;;;;;;;;;5044716;28;20099;-65
2023/10/31 02:52:32;;;;;;;0.20;0.20;;;;;;;;;;5044492;28;20410;-65
2023/10/31 02:54:58;;;;;;;0.22;0.20;;;;;;;;;;5045767;28;20049;-65
2023/10/31 02:57:24;;;;;;;0.13;0.13;;;;;;;;;;5046410;28;20037;-65
2023/10/31 02:59:50;;;;;;;0.32;0.20;;;;;;;;;;5046165;28;20048;-65
2023/10/31 03:02:16;;;;;;;0.20;0.20;;;;;;;;;;5045884;28;20045;-65
2023/10/31 03:04:42;;;;;;;0.20;0.20;;;;;;;;;;5044177;28;20060;-65
2023/10/31 03:07:08;;;;;;;0.17;0.17;;;;;;;;;;5044716;28;20091;-65
2023/10/31 03:09:34;;;;;;;0.20;0.20;;;;;;;;;;5046539;28;20434;-65
2023/10/31 03:12:00;;;;;;;0.25;0.20;;;;;;;;;;5045951;28;20049;-65
2023/10/31 03:14:28;;;;;;;0.75;0.45;;;;;;;;;;5046260;28;20148;-65
2023/10/31 03:16:54;;;;;;;0.20;0.20;;;;;;;;;;5043504;28;20049;-65
2023/10/31 03:19:19;;;;;;;0.32;0.32;;;;;;;;;;5046088;28;20102;-65
2023/10/31 03:21:45;;;;;;;0.50;0.38;;;;;;;;;;5044958;28;20486;-65
2023/10/31 03:24:11;;;;;;;0.50;0.50;;;;;;;;;;5043200;28;20053;-65
2023/10/31 03:26:37;;;;;;;0.30;0.30;;;;;;;;;;5044084;28;20561;-65
2023/10/31 03:29:03;;;;;;;0.30;0.20;;;;;;;;;;5044694;28;20136;-65
2023/10/31 03:31:29;;;;;;;0.43;0.30;;;;;;;;;;5045066;28;20045;-65
2023/10/31 03:33:55;;;;;;;0.73;0.40;;;;;;;;;;5045278;28;20130;-65
2023/10/31 03:36:22;;;;;;;0.45;0.30;;;;;;;;;;5044273;28;20040;-65
2023/10/31 03:38:48;;;;;;;0.80;0.40;;;;;;;;;;5045811;28;20041;-64
2023/10/31 03:41:14;;;;;;;1.95;0.50;;;;;;;;;;5045326;28;20348;-65
2023/10/31 03:43:39;;;;;;;0.75;0.43;;;;;;;;;;5045513;28;20457;-65
2023/10/31 03:46:06;;;;;;;0.47;0.47;;;;;;;;;;5045656;28;20040;-65
2023/10/31 03:48:32;;;;;;;0.50;0.40;;;;;;;;;;5045087;28;20129;-65
2023/10/31 03:50:57;;;;;;;1.42;0.85;;;;;;;;;;5044957;28;20080;-65
2023/10/31 03:53:23;;;;;;;0.93;0.60;;;;;;;;;;5044154;28;20063;-65
2023/10/31 03:55:49;;;;;;;1.00;0.80;;;;;;;;;;5043949;28;20053;-64
2023/10/31 03:58:15;;;;;;;0.73;0.73;;;;;;;;;;5045708;28;20045;-65
2023/10/31 04:00:41;;;;;;;1.42;0.93;;;;;;;;;;5045711;28;20399;-65
2023/10/31 04:03:08;;;;;;;1.15;0.50;;;;;;;;;;5044496;28;20093;-65
2023/10/31 04:05:34;;;;;;;2.30;0.90;;;;;;;;;;5045936;28;20044;-65
2023/10/31 04:08:00;;;;;;;2.65;0.63;;;;;;;;;;5047540;28;20049;-65
2023/10/31 04:10:26;;;;;;;1.15;0.80;;;;;;;;;;5045428;28;20173;-64
2023/10/31 04:12:52;;;;;;;0.75;0.68;;;;;;;;;;5044790;28;20366;-65
2023/10/31 04:15:18;;;;;;;1.15;0.50;;;;;;;;;;5043449;28;20158;-65
2023/10/31 04:17:44;;;;;;;1.80;0.68;;;;;;;;;;5044554;28;20455;-65
2023/10/31 04:20:10;;;;;;;2.05;0.77;;;;;;;;;;5043504;28;20044;-65
2023/10/31 04:22:36;;;;;;;0.50;0.50;;;;;;;;;;5044293;28;20358;-65
2023/10/31 04:25:03;;;;;;;0.95;0.55;;;;;;;;;;5043654;28;20398;-66
2023/10/31 04:27:29;;;;;;;0.55;0.40;;;;;;;;;;5046334;28;20045;-65
2023/10/31 04:29:55;;;;;;;0.30;0.30;;;;;;;;;;5045195;28;20052;-65
2023/10/31 04:32:21;;;;;;;0.30;0.30;;;;;;;;;;5045661;28;20483;-65
2023/10/31 04:34:47;;;;;;;0.90;0.52;;;;;;;;;;5045021;28;20128;-65
2023/10/31 04:37:13;;;;;;;0.88;0.30;;;;;;;;;;5040878;28;20551;-65
2023/10/31 04:39:39;;;;;;;0.60;0.60;;;;;;;;;;5044610;28;20060;-65
2023/10/31 04:42:05;;;;;;;1.40;0.85;;;;;;;;;;5044898;28;20037;-65
2023/10/31 04:44:31;;;;;;;2.90;0.70;;;;;;;;;;5044159;28;20076;-65
2023/10/31 04:46:57;;;;;;;1.23;0.70;;;;;;;;;;5044894;28;20454;-65
2023/10/31 04:49:23;;;;;;;0.60;0.40;;;;;;;;;;5042574;28;20151;-65
2023/10/31 04:51:49;;;;;;;0.80;0.30;;;;;;;;;;5044556;28;20049;-65
2023/10/31 04:54:15;;;;;;;1.63;0.70;;;;;;;;;;5043593;28;20091;-65
2023/10/31 04:56:41;;;;;;;0.55;0.32;;;;;;;;;;5042802;28;20080;-65
2023/10/31 04:59:07;;;;;;;0.85;0.60;;;;;;;;;;5043596;28;20440;-65
2023/10/31 05:01:33;;;;;;;1.25;0.60;;;;;;;;;;5042794;28;20155;-65
2023/10/31 05:03:59;;;;;;;0.60;0.50;;;;;;;;;;5043599;28;20057;-65
2023/10/31 05:06:25;;;;;;;0.73;0.68;;;;;;;;;;5043468;28;20078;-65
2023/10/31 05:08:51;;;;;;;0.90;0.60;;;;;;;;;;5044324;28;20261;-65
2023/10/31 05:11:18;;;;;;;0.80;0.77;;;;;;;;;;5040430;28;20079;-65
2023/10/31 05:13:44;;;;;;;0.50;0.38;;;;;;;;;;5042238;28;20098;-65
2023/10/31 05:16:11;;;;;;;0.63;0.60;;;;;;;;;;5043299;28;20049;-65
2023/10/31 05:18:37;;;;;;;1.05;0.90;;;;;;;;;;5041853;28;20152;-65
2023/10/31 05:21:04;;;;;;;0.80;0.75;;;;;;;;;;5040515;28;20049;-65
2023/10/31 05:23:30;;;;;;;0.73;0.65;;;;;;;;;;5042978;28;20087;-65
2023/10/31 05:25:56;;;;;;;1.48;0.60;;;;;;;;;;5043442;28;20080;-65
2023/10/31 05:28:23;;;;;;;0.73;0.60;;;;;;;;;;5043723;28;20395;-65
2023/10/31 05:30:49;;;;;;;0.50;0.38;;;;;;;;;;5044128;28;20124;-64
2023/10/31 05:33:17;;;;;;;1.38;0.63;;;;;;;;;;5042036;28;20078;-65
2023/10/31 05:35:43;;;;;;;0.38;0.38;;;;;;;;;;5041848;28;20075;-65
2023/10/31 05:38:09;;;;;;;0.57;0.40;;;;;;;;;;5042408;28;20084;-65
2023/10/31 05:40:35;;;;;;;0.65;0.40;;;;;;;;;;5041989;28;20441;-65
2023/10/31 05:43:05;;;;;;;0.35;0.32;;;;;;;;;;5043881;28;20047;-65
2023/10/31 05:45:31;;;;;;;1.17;0.38;;;;;;;;;;5043326;28;20037;-65
2023/10/31 05:47:57;;;;;;;1.00;0.40;;;;;;;;;;5041932;28;20044;-64
2023/10/31 05:50:23;;;;;;;0.40;0.30;;;;;;;;;;5042278;28;20398;-65
2023/10/31 05:52:49;;;;;;;0.52;0.38;;;;;;;;;;5043062;28;20089;-65
2023/10/31 05:55:15;;;;;;;1.45;0.40;;;;;;;;;;5042385;28;20040;-65
2023/10/31 05:57:42;;;;;;;0.60;0.40;;;;;;;;;;5043030;28;20051;-65
2023/10/31 06:00:08;;;;;;;0.85;0.40;;;;;;;;;;5043129;28;20222;-65
2023/10/31 06:02:34;;;;;;;0.82;0.57;;;;;;;;;;5039095;28;20059;-65
2023/10/31 06:05:00;;;;;;;0.65;0.32;;;;;;;;;;5043521;28;20405;-65
2023/10/31 06:07:26;;;;;;;0.75;0.30;;;;;;;;;;5040332;28;20123;-65
2023/10/31 06:09:52;;;;;;;0.40;0.40;;;;;;;;;;5042203;28;20036;-65
2023/10/31 06:12:18;;;;;;;1.08;0.40;;;;;;;;;;5040999;28;20077;-65
2023/10/31 06:14:44;;;;;;;1.45;0.55;;;;;;;;;;5042963;28;20131;-65
2023/10/31 06:17:10;;;;;;;0.50;0.50;;;;;;;;;;5042149;28;20057;-64
2023/10/31 06:19:37;;;;;;;2.63;0.70;;;;;;;;;;5042551;28;20053;-65
2023/10/31 06:22:03;;;;;;;0.40;0.40;;;;;;;;;;5043304;28;20076;-64
2023/10/31 06:24:29;;;;;;;0.60;0.38;;;;;;;;;;5040460;28;20033;-65
2023/10/31 06:26:55;;;;;;;0.57;0.50;;;;;;;;;;5041430;28;20045;-65
2023/10/31 06:29:21;;;;;;;0.43;0.43;;;;;;;;;;5041750;28;20209;-65
2023/10/31 06:31:47;;;;;;;0.52;0.20;;;;;;;;;;5042008;28;20456;-64
2023/10/31 06:34:13;;;;;;;1.33;0.60;;;;;;;;;;5041257;28;20084;-65
2023/10/31 06:36:39;;;;;;;0.50;0.50;;;;;;;;;;5042037;28;20091;-65
2023/10/31 06:39:05;;;;;;;1.52;0.55;;;;;;;;;;5041518;28;20052;-65
2023/10/31 06:41:31;;;;;;;0.70;0.50;;;;;;;;;;5043096;28;20041;-65
2023/10/31 06:43:57;;;;;;;0.52;0.50;;;;;;;;;;5042202;28;20037;-65
2023/10/31 06:46:23;;;;;;;0.70;0.63;;;;;;;;;;5041286;28;20079;-65
2023/10/31 06:48:49;;;;;;;1.85;0.80;;;;;;;;;;5041566;28;20151;-65
2023/10/31 06:51:15;;;;;;;0.77;0.57;;;;;;;;;;5041857;28;20040;-65
2023/10/31 06:53:41;;;;;;;0.52;0.47;;;;;;;;;;5042327;28;20073;-64
2023/10/31 06:56:07;;;;;;;2.00;0.80;;;;;;;;;;5042433;28;20239;-65
2023/10/31 06:58:33;;;;;;;0.57;0.57;;;;;;;;;;5039447;28;20130;-66
2023/10/31 07:01:00;;;;;;;1.90;0.80;;;;;;;;;;5042334;28;20072;-65
2023/10/31 07:03:26;;;;;;;3.60;1.05;;;;;;;;;;5038425;28;20206;-65
2023/10/31 07:05:52;;;;;;;1.00;0.90;;;;;;;;;;5041231;28;20065;-65
2023/10/31 07:08:19;;;;;;;1.85;1.00;;;;;;;;;;5043045;28;20049;-65
2023/10/31 07:10:45;;;;;;;2.30;0.82;;;;;;;;;;5044205;28;20387;-65
2023/10/31 07:13:11;;;;;;;0.77;0.68;;;;;;;;;;5041967;28;20072;-65
2023/10/31 07:15:38;;;;;;;2.03;1.13;;;;;;;;;;5040488;28;20040;-65
2023/10/31 07:18:07;;;;;;;1.50;0.90;;;;;;;;;;5039026;28;20120;-65
2023/10/31 07:20:33;;;;;;;0.98;0.85;;;;;;;;;;5040426;28;20052;-65
2023/10/31 07:22:59;;;;;;;2.35;0.95;;;;;;;;;;5040956;28;20057;-65
2023/10/31 07:25:25;;;;;;;4.55;1.33;;;;;;;;;;5040833;28;20777;-65
2023/10/31 07:27:51;;;;;;;1.50;0.90;;;;;;;;;;5041528;28;20087;-65
2023/10/31 07:30:17;;;;;;;2.47;0.60;;;;;;;;;;5041572;28;20466;-65
2023/10/31 07:32:43;;;;;;;2.42;1.02;;;;;;;;;;5033900;28;20372;-65
2023/10/31 07:35:09;;;;;;;1.08;0.60;;;;;;;;;;5042947;28;20052;-65
2023/10/31 07:37:35;;;;;;;2.55;0.60;;;;;;;;;;5045127;28;20098;-65
2023/10/31 07:40:01;;;;;;;1.88;0.73;;;;;;;;;;5043103;28;20044;-65
2023/10/31 07:42:27;;;;;;;1.20;0.95;;;;;;;;;;5044812;28;20537;-65
2023/10/31 07:44:53;;;;;;;0.93;0.40;;;;;;;;;;5041641;28;20128;-65
2023/10/31 07:47:19;;;;;;;0.90;0.50;;;;;;;;;;5042902;28;20048;-65
2023/10/31 07:49:45;;;;;;;0.68;0.35;;;;;;;;;;5044601;28;20041;-65
2023/10/31 07:52:11;;;;;;;2.08;0.50;;;;;;;;;;5043572;28;20052;-65
2023/10/31 07:54:40;;;;;;;0.82;0.45;;;;;;;;;;5044116;28;20118;-65
2023/10/31 07:57:06;;;;;;;1.95;0.50;;;;;;;;;;5042750;28;20059;-65
2023/10/31 07:59:35;;;;;;;0.38;0.30;;;;;;;;;;5044948;28;20052;-66
2023/10/31 08:02:02;;;;;;;0.90;0.30;;;;;;;;;;5040766;28;20588;-65
2023/10/31 08:04:29;;;;;;;1.23;0.20;;;;;;;;;;5044329;28;20518;-65
2023/10/31 08:06:55;;;;;;;0.40;0.38;;;;;;;;;;5044118;28;20056;-65
2023/10/31 08:09:22;;;;;;;1.08;0.70;;;;;;;;;;5044156;28;20132;-65
2023/10/31 08:11:48;;;;;;;0.82;0.50;;;;;;;;;;5043005;28;20098;-65
2023/10/31 08:14:15;;;;;;;0.65;0.47;;;;;;;;;;5046015;28;20051;-65
2023/10/31 08:16:41;;;;;;;0.68;0.40;;;;;;;;;;5043653;28;20053;-65
2023/10/31 08:19:07;;;;;;;0.22;0.10;;;;;;;;;;5046369;28;20044;-66
2023/10/31 08:21:35;;;;;;;0.70;0.20;;;;;;;;;;5044347;28;20076;-65
2023/10/31 08:24:05;;;;;;;0.60;0.25;;;;;;;;;;5043264;28;20041;-65
2023/10/31 08:26:34;;;;;;;0.40;0.20;;;;;;;;;;5040646;28;20049;-65
2023/10/31 08:29:00;;;;;;;0.85;0.20;;;;;;;;;;5043345;28;20195;-65
2023/10/31 08:31:26;;;;;;;0.50;0.32;;;;;;;;;;5044910;28;20107;-65
2023/10/31 08:33:52;;;;;;;1.77;0.47;;;;;;;;;;5043472;28;20053;-65
2023/10/31 08:36:18;;;;;;;0.75;0.28;;;;;;;;;;5040217;28;20057;-66
2023/10/31 08:38:44;;;;;;;0.68;0.25;;;;;;;;;;5041762;28;20041;-65
2023/10/31 08:41:10;;;;;;;1.58;0.38;;;;;;;;;;5044018;28;20036;-66
2023/10/31 08:43:36;;;;;;;2.75;0.60;;;;;;;;;;5042977;28;20098;-66
2023/10/31 08:46:02;;;;;;;1.45;0.35;;;;;;;;;;5043248;28;20159;-65
2023/10/31 08:48:28;;;;;;;2.92;0.30;;;;;;;;;;5039088;28;20107;-65
2023/10/31 08:50:54;;;;;;;0.75;0.17;;;;;;;;;;5040149;28;20064;-65
2023/10/31 08:53:20;;;;;;;1.23;0.30;;;;;;;;;;5043727;28;20491;-65
2023/10/31 08:55:46;;;;;;;1.20;0.38;;;;;;;;;;5041721;28;20128;-65
2023/10/31 08:58:13;;;;;;;0.77;0.32;;;;;;;;;;5042683;28;20137;-65
2023/10/31 09:00:40;;;;;;;0.82;0.30;;;;;;;;;;5044313;28;20041;-66
2023/10/31 09:03:07;;;;;;;0.35;0.28;;;;;;;;;;5043531;28;20746;-67
2023/10/31 09:05:33;;;;;;;0.85;0.30;;;;;;;;;;5044534;28;20045;-66
2023/10/31 09:07:59;;;;;;;3.75;0.63;;;;;;;;;;5043076;28;20045;-66
2023/10/31 09:10:25;;;;;;;0.20;0.13;;;;;;;;;;5046224;28;20049;-66
2023/10/31 09:12:51;;;;;;;0.93;0.17;;;;;;;;;;5044438;28;20044;-65
2023/10/31 09:15:18;;;;;;;0.43;0.10;;;;;;;;;;5045089;28;20052;-69
2023/10/31 09:17:44;;;;;;;0.20;0.10;;;;;;;;;;5043089;28;20165;-66
2023/10/31 09:20:11;;;;;;;1.52;0.32;;;;;;;;;;5042301;28;20171;-66
2023/10/31 09:22:37;;;;;;;0.90;0.10;;;;;;;;;;5041601;28;20064;-64
2023/10/31 09:25:03;;;;;;;0.05;0.05;;;;;;;;;;5042580;28;20045;-64
2023/10/31 09:27:29;;;;;;;0.30;0.13;;;;;;;;;;5044953;28;20440;-64
2023/10/31 09:29:55;;;;;;;0.00;0.00;;;;;;;;;;5043247;28;20127;-64
2023/10/31 09:32:21;;;;;;;0.55;0.20;;;;;;;;;;5043980;28;20641;-64
2023/10/31 09:34:47;;;;;;;0.00;0.00;;;;;;;;;;5042167;28;20045;-64
2023/10/31 09:37:13;;;;;;;0.35;0.10;;;;;;;;;;5059976;28;20470;-65
2023/10/31 09:39:39;;;;;;;0.63;0.20;;;;;;;;;;5044252;28;20059;-64
2023/10/31 09:42:07;;;;;;;0.47;0.10;;;;;;;;;;5042060;28;20049;-65
2023/10/31 09:44:33;;;;;;;0.17;0.13;;;;;;;;;;5040382;28;20033;-64
2023/10/31 09:47:00;;;;;;;0.40;0.20;;;;;;;;;;5043107;28;20041;-63
2023/10/31 09:49:26;;;;;;;0.20;0.20;;;;;;;;;;5043402;28;20309;-63
2023/10/31 09:51:52;;;;;;;0.73;0.30;;;;;;;;;;5043384;28;20490;-66
2023/10/31 09:54:18;;;;;;;0.43;0.20;;;;;;;;;;5039169;28;20052;-64
2023/10/31 09:56:44;;;;;;;0.20;0.10;;;;;;;;;;5041738;28;20450;-64
2023/10/31 09:59:10;;;;;;;0.47;0.28;;;;;;;;;;5035967;28;20057;-65
2023/10/31 10:01:36;;;;;;;1.13;0.30;;;;;;;;;;5040437;28;20068;-65
2023/10/31 10:04:02;;;;;;;1.15;0.10;;;;;;;;;;5043477;28;20116;-65
2023/10/31 10:06:28;;;;;;;0.22;0.20;;;;;;;;;;5043061;28;20063;-65
2023/10/31 10:08:56;;;;;;;0.15;0.15;;;;;;;;;;5042996;28;20427;-65
2023/10/31 10:11:22;;;;;;;0.25;0.20;;;;;;;;;;5043467;28;20064;-65
2023/10/31 10:13:48;;;;;;;0.13;0.13;;;;;;;;;;5043031;28;20083;-66
2023/10/31 10:16:27;;;;;;;1.05;0.20;;;;;;;;;;5043763;28;20048;-65
2023/10/31 10:18:53;;;;;;;1.15;0.50;;;;;;;;;;5039303;28;20052;-66
2023/10/31 10:21:19;;;;;;;0.20;0.20;;;;;;;;;;5044374;28;20406;-66
2023/10/31 10:23:49;;;;;;;0.30;0.22;;;;;;;;;;5043387;28;20045;-65
2023/10/31 10:26:15;;;;;;;0.15;0.10;;;;;;;;;;5044140;28;20487;-65
2023/10/31 10:28:41;;;;;;;1.33;0.30;;;;;;;;;;5043757;28;20052;-65
2023/10/31 10:31:07;;;;;;;1.38;0.30;;;;;;;;;;5044706;28;20404;-64
2023/10/31 10:33:34;;;;;;;0.90;0.20;;;;;;;;;;5044828;28;20060;-65
2023/10/31 10:36:00;;;;;;;0.00;0.00;;;;;;;;;;5044030;28;20041;-64
2023/10/31 10:38:28;;;;;;;0.98;0.10;;;;;;;;;;5042948;28;20638;-66
2023/10/31 10:40:54;;;;;;;0.30;0.20;;;;;;;;;;5040988;28;20479;-65
2023/10/31 10:43:20;;;;;;;0.10;0.10;;;;;;;;;;5040337;28;20640;-65
2023/10/31 10:45:48;;;;;;;0.22;0.10;;;;;;;;;;5041814;28;20080;-65
2023/10/31 10:48:17;;;;;;;0.32;0.10;;;;;;;;;;5057121;28;20048;-66
2023/10/31 10:50:43;;;;;;;0.30;0.10;;;;;;;;;;5055076;28;20048;-65
2023/10/31 10:53:18;;;;;;;0.85;0.20;;;;;;;;;;5039013;28;20054;-65
2023/10/31 10:55:46;;;;;;;0.10;0.10;;;;;;;;;;5041162;28;20052;-65
2023/10/31 10:58:21;;;;;;;2.40;0.65;;;;;;;;;;5042322;28;20044;-65
2023/10/31 11:00:47;;;;;;;0.40;0.10;;;;;;;;;;5039339;28;20045;-64
2023/10/31 11:03:13;;;;;;;0.25;0.03;;;;;;;;;;5036865;28;20045;-65
2023/10/31 11:05:40;;;;;;;1.23;0.20;;;;;;;;;;5038167;28;20065;-65
2023/10/31 11:08:07;;;;;;;0.45;0.00;;;;;;;;;;5059242;28;20056;-64
2023/10/31 11:10:33;;;;;;;0.38;0.00;;;;;;;;;;5042696;28;20053;-65
2023/10/31 11:12:58;;;;;;;0.28;0.10;;;;;;;;;;5043084;28;20056;-64
2023/10/31 11:15:26;;;;;;;0.20;0.10;;;;;;;;;;5043704;28;20118;-65
2023/10/31 11:17:52;;;;;;;0.43;0.13;;;;;;;;;;5042394;28;20446;-65
2023/10/31 11:20:18;;;;;;;0.43;0.20;;;;;;;;;;5044062;28;20449;-65
2023/10/31 11:22:45;;;;;;;0.38;0.10;;;;;;;;;;5043034;28;20052;-65
2023/10/31 11:25:23;;;;;;;0.30;0.00;;;;;;;;;;5042342;28;20047;-65
2023/10/31 11:27:50;;;;;;;0.20;0.10;;;;;;;;;;5041394;28;20091;-65
2023/10/31 11:30:25;;;;;;;0.43;0.25;;;;;;;;;;5044431;28;20049;-65
2023/10/31 11:32:55;;;;;;;0.17;0.17;;;;;;;;;;5037305;28;20049;-65
2023/10/31 11:35:23;;;;;;;0.77;0.20;;;;;;;;;;5038290;28;20049;-65
2023/10/31 11:37:50;;;;;;;0.00;0.00;;;;;;;;;;5040409;28;20058;-65
2023/10/31 11:40:22;;;;;;;0.32;0.00;;;;;;;;;;5042295;28;20120;-65
2023/10/31 11:42:58;;;;;;;0.20;0.00;;;;;;;;;;5043704;28;20382;-65
2023/10/31 11:45:30;;;;;;;0.10;0.10;;;;;;;;;;5042851;28;20080;-65
2023/10/31 11:47:56;;;;;;;0.08;0.00;;;;;;;;;;5041120;28;20098;-65
2023/10/31 11:50:23;;;;;;;0.08;0.08;;;;;;;;;;5043633;28;20073;-65
2023/10/31 11:53:18;;;;;;;0.82;0.13;;;;;;;;;;5042956;28;20056;-65
2023/10/31 11:55:46;;;;;;;0.10;0.00;;;;;;;;;;5022847;28;20798;-65
2023/10/31 11:58:20;;;;;;;0.10;0.03;;;;;;;;;;5043780;28;20442;-64
2023/10/31 12:00:46;;;;;;;0.30;0.10;;;;;;;;;;5041037;28;20060;-65
2023/10/31 12:03:13;;;;;;;0.10;0.10;;;;;;;;;;5039100;28;20426;-65
2023/10/31 12:05:39;;;;;;;0.00;0.00;;;;;;;;;;5044967;28;20044;-66
2023/10/31 12:08:05;;;;;;;0.00;0.00;;;;;;;;;;5044339;28;20107;-66
2023/10/31 12:10:31;;;;;;;0.10;0.10;;;;;;;;;;5046192;28;20044;-66
2023/10/31 12:12:58;;;;;;;0.45;0.03;;;;;;;;;;5045536;28;20037;-65
2023/10/31 12:15:24;;;;;;;0.13;0.10;;;;;;;;;;5044403;28;20127;-65
2023/10/31 12:17:50;;;;;;;0.13;0.10;;;;;;;;;;5042936;28;20044;-65
2023/10/31 12:20:16;;;;;;;0.08;0.00;;;;;;;;;;5042573;28;20441;-64
2023/10/31 12:22:43;;;;;;;0.15;0.10;;;;;;;;;;5041879;28;20040;-65
2023/10/31 12:25:09;;;;;;;2.30;0.10;;;;;;;;;;5045614;28;20077;-65
2023/10/31 12:27:46;;;;;;;1.65;0.10;;;;;;;;;;5045710;28;20431;-66
2023/10/31 12:30:13;;;;;;;0.10;0.10;;;;;;;;;;5038501;28;20487;-65
2023/10/31 12:32:42;;;;;;;1.10;0.25;;;;;;;;;;5044406;28;20390;-65
2023/10/31 12:35:16;;;;;;;0.00;0.00;;;;;;;;;;5040997;28;20041;-65
2023/10/31 12:37:49;;;;;;;0.80;0.17;;;;;;;;;;5042629;28;20080;-65
2023/10/31 12:40:20;;;;;;;0.47;0.28;;;;;;;;;;5042236;28;20068;-65
2023/10/31 12:42:47;;;;;;;0.20;0.10;;;;;;;;;;5035339;28;20398;-65
2023/10/31 12:45:14;;;;;;;0.52;0.10;;;;;;;;;;5041597;28;20052;-65
2023/10/31 12:47:40;;;;;;;0.10;0.10;;;;;;;;;;5036128;28;20048;-66
2023/10/31 12:50:12;;;;;;;0.35;0.20;;;;;;;;;;5044194;28;20047;-65
2023/10/31 12:52:38;;;;;;;;;;;;;;;;;;5042632;28;20519;-66
2023/10/31 12:55:12;;;;;;;0.52;0.10;;;;;;;;;;5045153;28;19935;-66
2023/10/31 12:57:38;;;;;;;1.58;0.50;;;;;;;;;;5043158;28;20572;-65
2023/10/31 13:00:09;;;;;;;0.55;0.13;;;;;;;;;;5044334;28;20052;-65
2023/10/31 13:02:35;;;;;;;0.65;0.20;;;;;;;;;;5042514;28;20048;-65
2023/10/31 13:05:11;;;;;;;0.20;0.10;;;;;;;;;;5041816;28;20131;-65
2023/10/31 13:07:38;;;;;;;0.40;0.20;;;;;;;;;;5044950;28;20061;-65
2023/10/31 13:10:05;;;;;;;0.57;0.35;;;;;;;;;;5043460;28;20554;-65
2023/10/31 13:12:31;;;;;;;2.15;0.30;;;;;;;;;;5044850;28;20400;-65
2023/10/31 13:14:57;;;;;;;1.05;0.32;;;;;;;;;;5058924;28;20044;-65
2023/10/31 13:17:23;;;;;;;0.65;0.10;;;;;;;;;;5044400;28;20201;-65
2023/10/31 13:19:49;;;;;;;0.30;0.17;;;;;;;;;;5041025;28;20041;-65
2023/10/31 13:22:15;;;;;;;0.28;0.10;;;;;;;;;;5044492;28;20401;-65
2023/10/31 13:24:42;;;;;;;0.00;0.00;;;;;;;;;;5057914;28;20138;-66
2023/10/31 13:27:08;;;;;;;0.00;0.00;;;;;;;;;;5060149;28;20120;-65
2023/10/31 13:29:34;;;;;;;0.15;0.00;;;;;;;;;;5043259;28;20183;-65
2023/10/31 13:32:00;;;;;;;0.40;0.10;;;;;;;;;;5053256;28;20051;-65
2023/10/31 13:34:26;;;;;;;0.13;0.00;;;;;;;;;;5040772;28;20045;-65
2023/10/31 13:36:52;;;;;;;0.13;0.10;;;;;;;;;;5041803;28;20041;-65
2023/10/31 13:39:18;;;;;;;0.15;0.00;;;;;;;;;;5040132;28;20049;-65
2023/10/31 13:41:45;;;;;;;0.85;0.10;;;;;;;;;;5038470;28;20481;-66
2023/10/31 13:44:11;;;;;;;0.40;0.32;;;;;;;;;;5039499;28;20482;-66
2023/10/31 13:46:37;;;;;;;0.22;0.17;;;;;;;;;;5055870;28;20054;-65
2023/10/31 13:49:03;;;;;;;0.20;0.10;;;;;;;;;;5034508;28;20088;-65
2023/10/31 13:51:29;;;;;;;0.05;0.00;;;;;;;;;;5041612;28;20461;-64
2023/10/31 13:53:56;;;;;;;0.10;0.05;;;;;;;;;;5041319;28;20040;-63
2023/10/31 13:56:22;;;;;;;0.10;0.10;;;;;;;;;;5041968;28;20102;-64
2023/10/31 13:58:48;;;;;;;0.05;0.00;;;;;;;;;;5040364;28;20053;-64
2023/10/31 14:01:14;;;;;;;0.40;0.00;;;;;;;;;;5043171;28;20049;-65
2023/10/31 14:03:40;;;;;;;1.27;0.32;;;;;;;;;;5042465;28;20043;-65
2023/10/31 14:06:06;;;;;;;0.10;0.10;;;;;;;;;;5043362;28;20531;-64
2023/10/31 14:08:33;;;;;;;1.08;0.28;;;;;;;;;;5039368;28;20099;-66
2023/10/31 14:10:59;;;;;;;0.45;0.10;;;;;;;;;;5041224;28;20267;-66
2023/10/31 14:13:25;;;;;;;0.38;0.20;;;;;;;;;;5036256;28;20138;-66
2023/10/31 14:15:51;;;;;;;1.42;0.25;;;;;;;;;;5040117;28;20102;-66
2023/10/31 14:18:16;;;;;;;0.17;0.15;;;;;;;;;;5039579;28;20045;-66
2023/10/31 14:20:42;;;;;;;0.10;0.05;;;;;;;;;;5038501;28;20044;-66
2023/10/31 14:23:08;;;;;;;0.03;0.03;;;;;;;;;;5041262;28;20498;-66
2023/10/31 14:25:34;;;;;;;0.55;0.20;;;;;;;;;;5044078;28;20040;-66
2023/10/31 14:28:00;;;;;;;0.20;0.10;;;;;;;;;;5037382;28;20037;-66
2023/10/31 14:30:27;;;;;;;0.10;0.10;;;;;;;;;;5041821;28;20533;-66
2023/10/31 14:32:53;;;;;;;0.10;0.10;;;;;;;;;;5039416;28;20068;-66
2023/10/31 14:35:19;;;;;;;1.45;0.10;;;;;;;;;;5038970;28;20052;-66
2023/10/31 14:37:45;;;;;;;0.50;0.20;;;;;;;;;;5040577;28;20256;-66
2023/10/31 14:40:11;;;;;;;1.73;0.17;;;;;;;;;;5040450;28;20056;-66